Forney's Hourly Summary for Tuesday, March 14, 2017
Hour Temp
(f)
RH
(%)
Solar Rad.
(MJ/m2)
Rainfall
(in)
Wind
(mph)
3/14/2017 12:00 AM 45 44 0 0 4.23
3/14/2017 1:00 AM 42 49 0 0 1.82
3/14/2017 2:00 AM 41 54 0 0 2.41
3/14/2017 3:00 AM 39 57 0 0 3.08
3/14/2017 4:00 AM 39 58 0 0 1.46
3/14/2017 5:00 AM 37 62 0 0 0.04
3/14/2017 6:00 AM 37 65 0 0 0.17
3/14/2017 7:00 AM 36 68 0 0 0.58
3/14/2017 8:00 AM 35 69 0.03 0 0.59
3/14/2017 9:00 AM 39 57 0.26 0 1.86
3/14/2017 10:00 AM 43 49 1.13 0 3.73
3/14/2017 11:00 AM 46 45 1.86 0 2.34
3/14/2017 12:00 PM 49 41 2.45 0 2.32
3/14/2017 1:00 PM 51 39 2.75 0 2.16
3/14/2017 2:00 PM 54 37 2.86 0 2.44
3/14/2017 3:00 PM 56 35 2.67 0 2.43
3/14/2017 4:00 PM 58 34 2.38 0 3.13
3/14/2017 5:00 PM 60 34 1.9 0 2.97
3/14/2017 6:00 PM 61 35 1.12 0 2.18
3/14/2017 7:00 PM 60 36 0.41 0 1.79
3/14/2017 8:00 PM 57 40 0.03 0 0.39
3/14/2017 9:00 PM 55 46 0 0 0.75
3/14/2017 10:00 PM 52 50 0 0 0.97
3/14/2017 11:00 PM 52 52 0 0 2.36
Data Summary 47 48 19.85 0.00 1.93